EmailTwitter


Observations de surface / Québec / LFBP

Régions: Québec | Canada | États-Unis | Europe | France | UK | Ailleurs
Station
Affichage
Infos & localisation pour LFBP | Aide pour décoder les METARs

Observations prises le 2017-09-26 à 16H00 UTC à PONT-LONG-UZEIN/, FR (LFBP)

Température: 21.0 Celsius

Point de rosée: 10.0 Celsius

Humidité relative: 49%

Vents: Variable à 6 km/h ou 3 noeuds.

Pression au niveau moyen de la mer: 102.10 kilopascals.

Observation METAR:

LFBP 261600Z AUTO VRB03KT CAVOK 21/10 Q1021 NOSIG=